Time;durP1;ratioP1;P1;durP2;ratioP2;P2;SDS_P1;SDS_P2;PMS_P1;PMS_P2;Temp;Humidity;BMP_temperature;BMP_pressure;BME280_temperature;BME280_humidity;BME280_pressure;Samples;Min_cycle;Max_cycle;Signal;HPM_P1;HPM_P2
2021/11/22 00:00:08;;;;;;;27.52;14.05;;;;;;;2.01;66.74;100661.48;1799438;79;25874;-62
2021/11/22 00:02:40;;;;;;;25.50;15.20;;;;;;;1.99;66.89;100668.18;1726246;82;25881;-62
2021/11/22 00:05:09;;;;;;;27.22;15.20;;;;;;;1.96;67.00;100672.34;1736035;82;25680;-63
2021/11/22 00:07:36;;;;;;;24.10;14.53;;;;;;;1.95;67.03;100685.22;1736342;82;25767;-63
2021/11/22 00:10:06;;;;;;;31.57;17.80;;;;;;;1.97;66.93;100682.48;1735206;82;26184;-62
2021/11/22 00:12:34;;;;;;;33.23;17.07;;;;;;;1.97;66.92;100683.80;1753998;81;25790;-64
2021/11/22 00:15:05;;;;;;;28.47;15.68;;;;;;;1.97;66.80;100689.11;1764111;81;27476;-64
2021/11/22 00:17:32;;;;;;;33.95;18.35;;;;;;;1.95;66.72;100696.28;1764342;81;25676;-64
2021/11/22 00:19:59;;;;;;;32.38;18.40;;;;;;;1.90;66.43;100689.91;1763970;81;25729;-64
2021/11/22 00:22:27;;;;;;;30.90;18.80;;;;;;;1.86;66.39;100691.86;1763905;80;25770;-64
2021/11/22 00:24:55;;;;;;;30.35;17.23;;;;;;;1.79;66.34;100699.77;1763975;80;25653;-64
2021/11/22 00:27:22;;;;;;;33.90;17.75;;;;;;;1.70;66.36;100692.30;1764108;81;28144;-63
2021/11/22 00:29:49;;;;;;;34.18;18.90;;;;;;;1.67;66.19;100699.08;1763884;81;25704;-64
2021/11/22 00:32:18;;;;;;;32.05;18.42;;;;;;;1.65;66.35;100700.98;1748748;81;25751;-64
2021/11/22 00:35:06;;;;;;;36.35;18.82;;;;;;;1.62;66.51;100705.11;1728071;83;25820;-63
2021/11/22 00:37:37;;;;;;;33.78;18.45;;;;;;;1.61;66.68;100713.55;1728081;81;25786;-63
2021/11/22 00:40:08;;;;;;;34.15;18.73;;;;;;;1.62;66.75;100709.08;1728073;83;28164;-62
2021/11/22 00:42:37;;;;;;;35.20;20.10;;;;;;;1.62;66.86;100709.08;1728342;81;25743;-62
2021/11/22 00:45:06;;;;;;;37.90;19.55;;;;;;;1.61;66.76;100710.02;1728138;81;25891;-64
2021/11/22 00:47:35;;;;;;;39.45;19.27;;;;;;;1.60;67.26;100719.78;1728174;83;25785;-63
2021/11/22 00:50:05;;;;;;;32.83;17.70;;;;;;;1.59;67.06;100722.04;1728956;81;25909;-62
2021/11/22 00:52:32;;;;;;;34.45;19.57;;;;;;;1.55;67.03;100718.69;1792161;80;27431;-63
2021/11/22 00:55:00;;;;;;;37.78;21.55;;;;;;;1.55;67.11;100726.65;1791696;78;25790;-63
2021/11/22 00:57:26;;;;;;;37.95;21.27;;;;;;;1.60;67.34;100718.91;1792306;79;25659;-63
2021/11/22 00:59:53;;;;;;;35.08;20.00;;;;;;;1.64;67.26;100724.45;1792175;78;25840;-63
2021/11/22 01:02:22;;;;;;;34.60;18.85;;;;;;;1.64;67.50;100724.45;1793242;79;25742;-63
2021/11/22 01:04:49;;;;;;;38.33;20.12;;;;;;;1.65;67.43;100728.34;1809257;79;27486;-62
2021/11/22 01:07:16;;;;;;;41.63;20.62;;;;;;;1.67;67.35;100724.27;1809338;79;25794;-63
2021/11/22 01:09:44;;;;;;;32.95;19.40;;;;;;;1.66;67.29;100727.41;1809314;79;25781;-63
2021/11/22 01:12:11;;;;;;;38.95;19.48;;;;;;;1.62;67.27;100724.99;1809516;79;26617;-63
2021/11/22 01:14:38;;;;;;;34.60;19.45;;;;;;;1.57;67.02;100730.53;1809349;78;25690;-63
2021/11/22 01:17:06;;;;;;;42.80;20.48;;;;;;;1.56;66.85;100738.09;1809334;79;27563;-62
2021/11/22 01:19:33;;;;;;;39.13;20.95;;;;;;;1.52;66.92;100732.58;1809278;79;25694;-63
2021/11/22 01:22:02;;;;;;;34.15;20.00;;;;;;;1.47;66.75;100735.92;1809668;79;25745;-63
2021/11/22 01:24:28;;;;;;;34.15;19.98;;;;;;;1.39;66.70;100735.84;1809353;79;25781;-62
2021/11/22 01:26:55;;;;;;;35.65;20.17;;;;;;;1.38;66.77;100744.73;1809987;79;25982;-63
2021/11/22 01:29:22;;;;;;;37.85;20.60;;;;;;;1.36;66.73;100746.59;1809405;79;27647;-63
2021/11/22 01:31:49;;;;;;;41.15;19.30;;;;;;;1.35;66.85;100743.55;1806705;79;27259;-63
2021/11/22 01:34:16;;;;;;;32.98;18.98;;;;;;;1.35;66.95;100749.33;1792209;78;25703;-62
2021/11/22 01:36:43;;;;;;;46.73;24.95;;;;;;;1.36;67.01;100748.40;1792263;80;26158;-63
2021/11/22 01:39:11;;;;;;;38.20;21.05;;;;;;;1.38;67.92;100746.05;1792302;78;25783;-63
2021/11/22 01:41:38;;;;;;;47.78;23.70;;;;;;;1.42;68.21;100745.42;1792009;78;28240;-63
2021/11/22 01:44:05;;;;;;;48.28;24.25;;;;;;;1.39;68.79;100744.28;1791867;78;25659;-62
2021/11/22 01:46:32;;;;;;;50.83;24.80;;;;;;;1.39;68.75;100746.45;1792424;78;25711;-63
2021/11/22 01:49:00;;;;;;;45.92;22.85;;;;;;;1.46;68.89;100752.75;1792038;79;25783;-63
2021/11/22 01:51:26;;;;;;;46.77;23.32;;;;;;;1.48;69.51;100754.39;1801717;78;25427;-62
2021/11/22 01:53:53;;;;;;;44.33;24.05;;;;;;;1.49;69.66;100752.13;1814609;77;27433;-63
2021/11/22 01:56:21;;;;;;;47.27;25.05;;;;;;;1.52;70.10;100760.42;1851594;77;25784;-63
2021/11/22 01:58:50;;;;;;;49.40;25.25;;;;;;;1.52;69.56;100750.66;1851677;77;25717;-63
2021/11/22 02:01:17;;;;;;;53.80;26.68;;;;;;;1.50;69.47;100753.00;1851416;77;25780;-63
2021/11/22 02:03:45;;;;;;;54.35;26.73;;;;;;;1.47;70.09;100763.30;1824564;77;25726;-63
2021/11/22 02:06:12;;;;;;;43.83;23.02;;;;;;;1.44;69.64;100763.45;1809585;77;27436;-63
2021/11/22 02:08:40;;;;;;;50.45;23.83;;;;;;;1.45;69.33;100772.24;1809544;78;25792;-63
2021/11/22 02:11:12;;;;;;;45.03;22.60;;;;;;;1.40;69.62;100770.70;1817722;78;25734;-63
2021/11/22 02:13:41;;;;;;;46.77;23.22;;;;;;;1.40;69.30;100772.47;1817871;78;26685;-63
2021/11/22 02:16:08;;;;;;;41.70;23.40;;;;;;;1.43;69.76;100782.09;1817696;77;25738;-63
2021/11/22 02:18:35;;;;;;;43.92;23.47;;;;;;;1.42;69.31;100780.38;1817845;78;28224;-64
2021/11/22 02:21:02;;;;;;;49.40;24.37;;;;;;;1.40;69.19;100785.28;1817535;78;25792;-63
2021/11/22 02:23:30;;;;;;;53.33;23.52;;;;;;;1.41;68.98;100788.77;1817849;78;25783;-63
2021/11/22 02:25:56;;;;;;;47.45;24.47;;;;;;;1.41;69.17;100783.47;1817819;78;25783;-63
2021/11/22 02:28:23;;;;;;;48.52;23.40;;;;;;;1.40;69.33;100781.75;1817687;77;25819;-63
2021/11/22 02:30:51;;;;;;;53.55;24.75;;;;;;;1.42;70.14;100786.52;1817629;78;27471;-63
2021/11/22 02:33:23;;;;;;;48.02;23.52;;;;;;;1.38;69.64;100787.62;1817527;78;25750;-63
2021/11/22 02:35:56;;;;;;;43.92;23.27;;;;;;;1.36;69.64;100789.48;1817730;78;25750;-63
2021/11/22 02:38:30;;;;;;;43.68;25.60;;;;;;;1.32;69.38;100789.23;1817936;77;26454;-63
2021/11/22 02:40:58;;;;;;;;;;;;;;;1.28;69.18;100786.36;1820311;78;25762;-63
2021/11/22 02:43:27;;;;;;;44.53;23.02;;;;;;;1.30;69.64;100791.12;1779560;80;28189;-63
2021/11/22 02:45:55;;;;;;;53.05;24.05;;;;;;;1.31;69.30;100797.66;1753979;81;25807;-63
2021/11/22 02:48:22;;;;;;;41.25;23.73;;;;;;;1.36;69.06;100798.77;1754332;81;25743;-63
2021/11/22 02:50:50;;;;;;;43.98;22.73;;;;;;;1.40;69.01;100801.63;1755700;81;25783;-63
2021/11/22 02:53:17;;;;;;;40.60;23.32;;;;;;;1.44;68.84;100802.34;1735995;82;25744;-63
2021/11/22 02:55:44;;;;;;;43.25;21.90;;;;;;;1.41;68.59;100794.08;1736031;82;27574;-63
2021/11/22 02:58:12;;;;;;;40.73;20.62;;;;;;;1.44;68.71;100799.23;1735947;82;25766;-64
2021/11/22 03:00:39;;;;;;;41.37;21.50;;;;;;;1.49;68.79;100801.66;1735835;81;25760;-64
2021/11/22 03:03:06;;;;;;;37.20;21.57;;;;;;;1.53;68.76;100799.22;1772567;80;25781;-64
2021/11/22 03:05:33;;;;;;;41.15;22.40;;;;;;;1.56;68.55;100809.23;1789192;80;25225;-64
2021/11/22 03:08:01;;;;;;;40.40;22.50;;;;;;;1.61;68.39;100810.78;1789132;78;27521;-64
2021/11/22 03:10:29;;;;;;;43.90;23.55;;;;;;;1.61;68.20;100814.76;1767710;80;25746;-63
2021/11/22 03:12:58;;;;;;;46.83;23.02;;;;;;;1.63;68.17;100818.20;1738290;82;25771;-63
2021/11/22 03:15:27;;;;;;;55.03;23.85;;;;;;;1.64;68.11;100823.41;1738618;82;25743;-63
2021/11/22 03:17:54;;;;;;;48.08;24.12;;;;;;;1.64;67.96;100818.59;1738203;82;25709;-63
2021/11/22 03:20:22;;;;;;;47.33;22.70;;;;;;;1.64;67.57;100833.17;1738567;81;28495;-63
2021/11/22 03:22:51;;;;;;;43.10;22.58;;;;;;;1.58;67.30;100831.69;1738340;82;25489;-63
2021/11/22 03:25:19;;;;;;;47.27;24.60;;;;;;;1.52;67.20;100839.48;1738618;81;25822;-63
2021/11/22 03:27:47;;;;;;;37.67;21.50;;;;;;;1.48;67.06;100836.57;1736290;82;25825;-63
2021/11/22 03:30:16;;;;;;;37.30;21.25;;;;;;;1.42;66.99;100838.69;1736512;82;25845;-63
2021/11/22 03:32:44;;;;;;;36.33;20.43;;;;;;;1.36;67.15;100853.10;1731817;82;27518;-63
2021/11/22 03:35:13;;;;;;;39.20;21.25;;;;;;;1.26;67.19;100856.64;1728002;83;25759;-63
2021/11/22 03:37:41;;;;;;;39.63;21.77;;;;;;;1.26;67.69;100857.97;1728178;83;25722;-63
2021/11/22 03:40:10;;;;;;;41.45;21.77;;;;;;;1.25;67.68;100861.58;1727992;83;25815;-63
2021/11/22 03:42:52;;;;;;;40.08;21.10;;;;;;;1.23;67.72;100859.47;1728201;83;25891;-63
2021/11/22 03:45:11;;;;;;;38.92;20.77;;;;;;;1.21;68.03;100863.49;1727611;82;27475;-63
2021/11/22 03:47:39;;;;;;;37.75;21.45;;;;;;;1.22;67.95;100874.48;1727849;83;25811;-63
2021/11/22 03:50:08;;;;;;;42.38;21.95;;;;;;;1.24;68.14;100871.31;1728300;81;25804;-63
2021/11/22 03:52:35;;;;;;;41.35;22.80;;;;;;;1.26;68.02;100871.22;1728144;81;25833;-63
2021/11/22 03:55:04;;;;;;;36.63;20.92;;;;;;;1.28;68.14;100880.45;1728181;83;25803;-63
2021/11/22 03:57:31;;;;;;;42.78;22.67;;;;;;;1.30;67.97;100885.22;1728024;81;27511;-62
2021/11/22 03:59:58;;;;;;;40.15;22.05;;;;;;;1.28;67.91;100885.27;1728217;83;25751;-62
2021/11/22 04:02:25;;;;;;;42.60;21.33;;;;;;;1.28;67.70;100891.89;1728857;82;25801;-62
2021/11/22 04:04:53;;;;;;;42.53;19.90;;;;;;;1.25;67.52;100888.93;1736188;81;25823;-62
2021/11/22 04:07:20;;;;;;;37.78;20.68;;;;;;;1.22;67.36;100884.25;1736097;82;25930;-62
2021/11/22 04:09:47;;;;;;;40.45;20.55;;;;;;;1.19;67.32;100885.70;1736006;81;27488;-62
2021/11/22 04:12:14;;;;;;;38.67;20.17;;;;;;;1.15;67.25;100889.45;1750681;81;25748;-62
2021/11/22 04:14:41;;;;;;;47.30;20.43;;;;;;;1.11;67.42;100888.73;1763881;81;25759;-62
2021/11/22 04:17:08;;;;;;;39.75;20.08;;;;;;;1.07;67.55;100885.38;1764103;81;25754;-62
2021/11/22 04:19:35;;;;;;;38.55;20.43;;;;;;;1.08;67.65;100895.50;1763916;81;25806;-62
2021/11/22 04:22:03;;;;;;;42.13;20.10;;;;;;;1.07;67.76;100896.42;1763771;81;27544;-62
2021/11/22 04:24:30;;;;;;;36.58;19.35;;;;;;;1.05;67.82;100899.16;1763756;80;25707;-62
2021/11/22 04:26:58;;;;;;;40.78;20.55;;;;;;;1.06;67.89;100902.65;1764064;81;25478;-62
2021/11/22 04:29:25;;;;;;;45.15;20.15;;;;;;;1.07;68.01;100901.72;1763859;81;25862;-63
2021/11/22 04:31:51;;;;;;;42.45;19.55;;;;;;;1.11;68.03;100913.03;1758222;81;25902;-62
2021/11/22 04:34:18;;;;;;;42.35;21.95;;;;;;;1.08;67.95;100909.59;1728030;83;27222;-62
2021/11/22 04:36:46;;;;;;;38.38;20.75;;;;;;;1.08;67.87;100911.39;1728011;83;25814;-62
2021/11/22 04:39:13;;;;;;;37.60;19.35;;;;;;;0.99;67.57;100918.45;1728073;82;25484;-62
2021/11/22 04:41:40;;;;;;;39.27;20.23;;;;;;;0.94;67.79;100921.30;1728391;81;25833;-62
2021/11/22 04:44:07;;;;;;;40.17;20.43;;;;;;;0.90;67.82;100929.86;1728378;83;25840;-64
2021/11/22 04:46:34;;;;;;;35.68;19.55;;;;;;;0.85;67.82;100930.52;1728002;83;27552;-62
2021/11/22 04:49:01;;;;;;;41.85;21.77;;;;;;;0.82;68.12;100937.30;1728295;83;25723;-63
2021/11/22 04:51:28;;;;;;;56.37;25.25;;;;;;;0.81;68.32;100943.52;1733282;81;25838;-63
2021/11/22 04:53:55;;;;;;;46.23;21.75;;;;;;;0.76;68.43;100945.05;1762215;81;25807;-63
2021/11/22 04:56:23;;;;;;;44.35;21.52;;;;;;;0.78;68.70;100943.64;1762339;81;25786;-63
2021/11/22 04:58:50;;;;;;;41.00;22.52;;;;;;;0.74;68.94;100946.05;1762442;80;27481;-63
2021/11/22 05:01:17;;;;;;;35.23;19.37;;;;;;;0.73;69.03;100950.95;1762388;81;25713;-63
2021/11/22 05:03:45;;;;;;;42.75;19.73;;;;;;;0.78;69.32;100948.50;1762941;81;25837;-62
2021/11/22 05:06:12;;;;;;;37.03;19.62;;;;;;;0.84;69.47;100958.41;1762439;81;25809;-64
2021/11/22 05:08:39;;;;;;;48.08;20.00;;;;;;;0.92;69.50;100960.24;1762995;81;25940;-65
2021/11/22 05:11:06;;;;;;;39.30;20.27;;;;;;;0.97;69.56;100962.23;1762346;80;28160;-64
2021/11/22 05:13:33;;;;;;;46.92;20.55;;;;;;;0.97;69.28;100960.91;1762731;80;25470;-63
2021/11/22 05:16:00;;;;;;;39.88;20.23;;;;;;;0.99;69.30;100966.98;1762992;80;25743;-64
2021/11/22 05:18:27;;;;;;;42.73;20.02;;;;;;;1.00;69.27;100972.67;1762600;80;26436;-64
2021/11/22 05:20:54;;;;;;;36.00;20.40;;;;;;;1.02;69.19;100979.25;1762953;81;25822;-69
2021/11/22 05:23:21;;;;;;;40.03;20.27;;;;;;;1.02;69.17;100980.58;1762571;80;27490;-63
2021/11/22 05:25:48;;;;;;;42.08;22.22;;;;;;;1.02;68.98;100980.58;1762580;80;25811;-62
2021/11/22 05:28:15;;;;;;;40.15;19.52;;;;;;;0.99;68.82;100986.00;1762561;81;25803;-62
2021/11/22 05:30:42;;;;;;;36.53;19.00;;;;;;;0.99;68.84;100996.59;1762564;80;25775;-63
2021/11/22 05:33:09;;;;;;;50.75;20.72;;;;;;;0.98;69.29;100994.88;1762832;81;25892;-63
2021/11/22 05:35:36;;;;;;;41.83;19.37;;;;;;;0.96;70.04;101006.87;1762433;81;27514;-63
2021/11/22 05:38:05;;;;;;;52.73;23.32;;;;;;;0.96;69.53;101019.23;1762631;80;25730;-64
2021/11/22 05:40:31;;;;;;;44.75;23.50;;;;;;;0.99;69.63;101019.11;1762773;81;25842;-63
2021/11/22 05:42:59;;;;;;;45.30;20.97;;;;;;;1.07;69.99;101019.63;1762508;81;25829;-64
2021/11/22 05:45:27;;;;;;;38.83;19.00;;;;;;;1.13;70.33;101021.15;1763099;81;25842;-64
2021/11/22 05:47:54;;;;;;;36.75;19.95;;;;;;;1.17;69.99;101018.73;1762754;81;28194;-64
2021/11/22 05:50:22;;;;;;;38.48;17.77;;;;;;;1.22;70.57;101018.92;1762736;80;25722;-64
2021/11/22 05:52:52;;;;;;;35.80;18.05;;;;;;;1.26;70.62;101019.64;1747219;81;25708;-63
2021/11/22 05:56:22;;;;;;;39.95;19.62;;;;;;;1.32;70.33;101033.97;1712938;81;25821;-63
2021/11/22 05:57:59;;;;;;;40.12;18.90;;;;;;;1.41;70.51;101028.69;1689809;82;25862;-64
2021/11/22 06:00:27;;;;;;;44.18;18.62;;;;;;;1.51;70.73;101035.77;1703186;84;27461;-64
2021/11/22 06:02:54;;;;;;;49.00;19.45;;;;;;;1.58;70.51;101036.31;1710417;82;25761;-63
2021/11/22 06:05:21;;;;;;;34.70;17.98;;;;;;;1.66;70.80;101036.84;1728020;83;25733;-63
2021/11/22 06:07:48;;;;;;;40.10;20.15;;;;;;;1.77;71.36;101039.83;1727733;83;25796;-63
2021/11/22 06:10:16;;;;;;;37.93;19.25;;;;;;;1.93;71.22;101035.98;1733910;82;25796;-63
2021/11/22 06:12:43;;;;;;;48.02;17.90;;;;;;;2.02;70.87;101037.31;1736326;82;28143;-63
2021/11/22 06:15:10;;;;;;;37.70;19.17;;;;;;;2.10;70.56;101042.27;1762351;81;26037;-62
2021/11/22 06:17:37;;;;;;;33.08;18.35;;;;;;;2.12;69.97;101042.57;1738172;82;25900;-63
2021/11/22 06:20:06;;;;;;;32.75;18.87;;;;;;;2.12;69.76;101044.38;1736029;82;25808;-63
2021/11/22 06:22:33;;;;;;;39.08;19.45;;;;;;;2.13;69.76;101050.94;1746442;81;25826;-63
2021/11/22 06:25:00;;;;;;;30.05;17.67;;;;;;;2.15;69.74;101047.74;1800840;79;27498;-64
2021/11/22 06:27:28;;;;;;;36.63;17.55;;;;;;;2.12;69.40;101047.88;1800800;79;25803;-63
2021/11/22 06:29:56;;;;;;;35.52;20.45;;;;;;;2.11;69.43;101044.83;1800760;79;25759;-65
2021/11/22 06:32:31;;;;;;;37.00;18.65;;;;;;;2.13;69.56;101052.26;1794733;78;25796;-61
2021/11/22 06:34:56;;;;;;;44.48;20.80;;;;;;;2.15;69.63;101055.70;1783478;79;25741;-62
2021/11/22 06:37:26;;;;;;;32.55;19.15;;;;;;;2.18;69.76;101054.23;1787000;79;27431;-62
2021/11/22 06:39:54;;;;;;;47.83;21.93;;;;;;;2.24;69.88;101061.50;1783620;80;25743;-63
2021/11/22 06:42:24;;;;;;;48.30;24.65;;;;;;;2.32;71.11;101065.95;1784149;79;25698;-63
2021/11/22 06:44:51;;;;;;;44.45;20.82;;;;;;;2.45;70.77;101061.77;1783967;79;26480;-63
2021/11/22 06:47:19;;;;;;;51.63;20.72;;;;;;;2.52;70.67;101066.28;1785294;79;25810;-62
2021/11/22 06:49:46;;;;;;;42.58;19.92;;;;;;;2.62;71.02;101064.89;1783956;79;26880;-63
2021/11/22 06:52:14;;;;;;;37.45;19.10;;;;;;;2.73;71.09;101069.68;1783592;79;25673;-63
2021/11/22 06:54:41;;;;;;;37.33;18.67;;;;;;;2.88;71.38;101071.14;1783697;79;25505;-63
2021/11/22 06:57:08;;;;;;;38.63;18.95;;;;;;;3.02;72.45;101064.63;1783994;79;25870;-63
2021/11/22 06:59:35;;;;;;;36.13;20.05;;;;;;;3.15;72.37;101074.15;1783078;80;25709;-64
2021/11/22 07:02:03;;;;;;;47.45;20.32;;;;;;;3.29;73.05;101081.40;1799641;79;27411;-64
2021/11/22 07:04:30;;;;;;;45.92;19.48;;;;;;;3.41;72.58;101075.89;1799588;78;25509;-63
2021/11/22 07:06:57;;;;;;;43.17;18.37;;;;;;;3.54;72.41;101073.45;1795300;79;25766;-63
2021/11/22 07:09:25;;;;;;;40.52;18.87;;;;;;;3.68;72.28;101071.34;1769255;81;26546;-63
2021/11/22 07:11:53;;;;;;;54.70;19.35;;;;;;;3.80;72.30;101070.67;1777965;79;25790;-64
2021/11/22 07:14:20;;;;;;;41.15;18.55;;;;;;;3.87;72.09;101073.86;1798895;79;27540;-63
2021/11/22 07:16:49;;;;;;;37.08;19.32;;;;;;;3.94;72.00;101073.90;1800426;79;25748;-63
2021/11/22 07:19:16;;;;;;;38.38;19.30;;;;;;;4.02;71.96;101065.49;1800968;78;25773;-63
2021/11/22 07:21:43;;;;;;;39.30;20.62;;;;;;;4.14;71.70;101069.26;1795241;79;26390;-63
2021/11/22 07:24:11;;;;;;;39.95;20.17;;;;;;;4.22;71.71;101078.52;1783781;80;25629;-63
2021/11/22 07:26:38;;;;;;;32.65;17.95;;;;;;;4.31;71.63;101073.60;1792894;79;27435;-63
2021/11/22 07:29:08;;;;;;;36.08;17.42;;;;;;;4.38;71.34;101069.17;1800685;78;25711;-63
2021/11/22 07:31:35;;;;;;;37.95;18.82;;;;;;;4.45;71.11;101073.69;1799640;79;25787;-63
2021/11/22 07:34:03;;;;;;;39.35;19.75;;;;;;;4.52;71.03;101071.04;1788935;79;25835;-63
2021/11/22 07:36:30;;;;;;;35.03;19.20;;;;;;;4.60;71.13;101079.05;1784641;79;25787;-63
2021/11/22 07:38:56;;;;;;;37.03;17.55;;;;;;;4.65;70.85;101074.33;1785968;79;27478;-63
2021/11/22 07:41:23;;;;;;;32.13;18.62;;;;;;;4.79;70.50;101080.17;1793198;79;25877;-64
2021/11/22 07:43:50;;;;;;;34.75;18.20;;;;;;;4.91;70.40;101083.91;1795684;78;25847;-63
2021/11/22 07:46:18;;;;;;;34.67;17.50;;;;;;;4.98;70.04;101090.09;1788773;79;26448;-63
2021/11/22 07:48:45;;;;;;;48.20;17.65;;;;;;;5.03;69.88;101098.31;1792155;79;25816;-62
2021/11/22 07:51:12;;;;;;;40.23;18.45;;;;;;;5.16;69.88;101089.48;1800622;79;27431;-62
2021/11/22 07:53:39;;;;;;;37.13;18.92;;;;;;;5.26;69.60;101092.43;1800583;79;25706;-62
2021/11/22 07:56:07;;;;;;;44.58;22.00;;;;;;;5.37;69.13;101092.25;1790443;79;25790;-63
2021/11/22 07:58:35;;;;;;;48.42;21.75;;;;;;;5.46;68.99;101093.02;1794620;79;26463;-63
2021/11/22 08:01:03;;;;;;;39.03;19.15;;;;;;;5.62;68.69;101085.77;1798512;79;26298;-63
2021/11/22 08:03:30;;;;;;;36.77;19.60;;;;;;;5.79;68.74;101090.51;1783827;79;27538;-62
2021/11/22 08:05:58;;;;;;;32.38;16.87;;;;;;;6.01;68.67;101095.36;1783712;79;26169;-63
2021/11/22 08:08:29;;;;;;;33.18;16.55;;;;;;;6.17;68.10;101090.39;1791502;79;25757;-63
2021/11/22 08:11:07;;;;;;;28.05;16.23;;;;;;;6.34;67.42;101103.50;1776366;79;25798;-63
2021/11/22 08:13:35;;;;;;;24.43;15.38;;;;;;;6.44;66.50;101102.41;1800683;79;25766;-64
2021/11/22 08:16:03;;;;;;;36.45;16.07;;;;;;;6.52;66.31;101104.09;1792981;79;27424;-63
2021/11/22 08:18:32;;;;;;;28.47;16.42;;;;;;;6.62;65.93;101106.16;1787174;79;25788;-63
2021/11/22 08:21:01;;;;;;;34.48;16.60;;;;;;;6.76;65.64;101111.91;1784254;79;25752;-63
2021/11/22 08:23:28;;;;;;;31.12;17.27;;;;;;;7.00;65.87;101108.91;1783983;80;26412;-63
2021/11/22 08:25:55;;;;;;;28.02;15.23;;;;;;;7.43;65.38;101115.80;1780909;79;26477;-63
2021/11/22 08:28:23;;;;;;;28.85;17.20;;;;;;;8.02;63.81;101111.66;1804507;78;27453;-63
2021/11/22 08:30:51;;;;;;;33.48;17.55;;;;;;;8.80;61.89;101113.54;1799979;79;25752;-63
2021/11/22 08:33:18;;;;;;;33.58;17.37;;;;;;;9.46;60.49;101104.08;1801699;78;25731;-63
2021/11/22 08:35:47;;;;;;;33.38;16.62;;;;;;;10.08;58.75;101101.85;1802794;78;25766;-64
2021/11/22 08:38:15;;;;;;;32.10;16.17;;;;;;;10.54;57.50;101094.53;1800620;79;25739;-64
2021/11/22 08:40:43;;;;;;;30.45;17.50;;;;;;;11.10;57.23;101093.39;1792463;79;27421;-64
2021/11/22 08:43:15;;;;;;;39.13;16.40;;;;;;;11.61;56.22;101092.20;1800166;79;25407;-64
2021/11/22 08:45:46;;;;;;;26.15;15.70;;;;;;;12.02;54.71;101089.03;1793021;79;25710;-64
2021/11/22 08:48:11;;;;;;;28.87;16.57;;;;;;;12.53;54.36;101092.02;1808131;78;25789;-64
2021/11/22 08:50:39;;;;;;;24.87;16.25;;;;;;;12.93;53.06;101097.41;1821170;78;25239;-63
2021/11/22 08:53:05;;;;;;;29.12;16.62;;;;;;;13.34;52.67;101096.69;1800655;78;27489;-63
2021/11/22 08:55:33;;;;;;;32.23;15.15;;;;;;;13.77;50.46;101091.73;1800603;78;25889;-63
2021/11/22 08:58:00;;;;;;;27.07;15.00;;;;;;;14.02;49.81;101098.31;1800908;78;25502;-63
2021/11/22 09:00:32;;;;;;;29.60;15.10;;;;;;;14.26;50.26;101091.46;1821007;78;25790;-63
2021/11/22 09:02:59;;;;;;;34.65;15.72;;;;;;;14.65;49.63;101095.25;1802723;78;25707;-63
2021/11/22 09:05:27;;;;;;;27.75;14.63;;;;;;;15.11;49.12;101088.84;1783910;79;27811;-62
2021/11/22 09:07:54;;;;;;;22.73;14.75;;;;;;;15.46;49.23;101091.13;1783765;80;25773;-63
2021/11/22 09:10:22;;;;;;;27.10;14.43;;;;;;;15.47;45.55;101088.73;1788125;78;25424;-63
2021/11/22 09:12:50;;;;;;;26.52;15.20;;;;;;;15.71;46.11;101081.25;1822731;78;25844;-63
2021/11/22 09:15:17;;;;;;;24.63;14.50;;;;;;;15.95;46.11;101081.89;1783901;80;25688;-63
2021/11/22 09:17:45;;;;;;;21.30;13.62;;;;;;;16.38;46.25;101087.77;1787054;78;27518;-63
2021/11/22 09:20:13;;;;;;;26.50;14.38;;;;;;;16.87;45.67;101081.52;1792754;79;25723;-64
2021/11/22 09:22:41;;;;;;;27.25;14.63;;;;;;;17.11;43.37;101078.50;1791991;78;26097;-64
2021/11/22 09:25:10;;;;;;;22.22;14.23;;;;;;;17.41;43.42;101078.77;1803221;78;25794;-64
2021/11/22 09:27:37;;;;;;;27.85;14.45;;;;;;;17.90;43.47;101072.30;1808845;77;25759;-64
2021/11/22 09:30:07;;;;;;;25.15;15.00;;;;;;;18.39;43.25;101073.92;1808189;78;28128;-64
2021/11/22 09:32:34;;;;;;;28.85;15.13;;;;;;;18.75;41.64;101064.65;1811485;78;26039;-66
2021/11/22 09:35:01;;;;;;;23.85;15.32;;;;;;;19.05;40.79;101066.09;1800583;78;25776;-64
2021/11/22 09:37:28;;;;;;;27.10;14.90;;;;;;;19.35;40.39;101058.48;1788371;78;25816;-63
2021/11/22 09:39:56;;;;;;;292.68;162.55;;;;;;;19.71;40.17;101055.83;1765373;78;25783;-63
2021/11/22 09:42:23;;;;;;;26.20;14.45;;;;;;;19.95;39.64;101053.01;1802900;78;27620;-64
2021/11/22 09:44:50;;;;;;;23.18;13.53;;;;;;;20.25;38.35;101054.30;1805971;78;26380;-64
2021/11/22 09:47:17;;;;;;;21.07;13.35;;;;;;;20.61;37.98;101053.41;1820654;77;25785;-64
2021/11/22 09:49:44;;;;;;;20.65;11.95;;;;;;;20.90;37.43;101053.79;1813246;78;25800;-65
2021/11/22 09:52:11;;;;;;;17.05;11.48;;;;;;;21.24;36.74;101060.34;1791818;78;25708;-64
2021/11/22 09:54:38;;;;;;;14.75;9.48;;;;;;;21.15;34.71;101059.34;1825911;78;27520;-64
2021/11/22 09:57:05;;;;;;;18.12;9.38;;;;;;;21.18;34.78;101053.45;1778033;78;25877;-64
2021/11/22 09:59:32;;;;;;;13.75;10.00;;;;;;;21.29;34.99;101052.91;1788463;78;25668;-64
2021/11/22 10:01:59;;;;;;;21.23;9.55;;;;;;;21.57;34.74;101051.48;1807699;78;25920;-65
2021/11/22 10:04:32;;;;;;;18.23;10.65;;;;;;;21.83;33.75;101044.47;1794865;78;25790;-69
2021/11/22 10:07:03;;;;;;;14.00;9.93;;;;;;;22.08;34.19;101049.43;1812017;78;27477;-65
2021/11/22 10:09:35;;;;;;;14.90;9.40;;;;;;;22.29;34.04;101044.82;1808113;78;25762;-69
2021/11/22 10:12:08;;;;;;;14.07;9.38;;;;;;;22.58;33.25;101035.94;1806225;78;25822;-66
2021/11/22 10:14:54;;;;;;;12.68;8.93;;;;;;;23.01;32.43;101038.80;1808272;78;26409;-65
2021/11/22 10:17:44;;;;;;;13.05;9.38;;;;;;;23.13;32.68;101037.07;1822976;77;25990;-66
2021/11/22 10:20:17;;;;;;;15.95;9.25;;;;;;;23.43;31.29;101038.86;1820017;78;27511;-66
2021/11/22 10:22:59;;;;;;;13.62;8.98;;;;;;;23.51;31.36;101038.31;1782704;79;25633;-65
2021/11/22 10:25:34;;;;;;;12.68;8.93;;;;;;;23.72;30.92;101043.50;1806144;78;25782;-66
2021/11/22 10:28:25;;;;;;;16.07;11.28;;;;;;;23.93;30.20;101037.94;1822664;77;25811;-66
2021/11/22 10:31:03;;;;;;;12.43;9.55;;;;;;;23.84;29.14;101043.69;1791030;78;25829;-66
2021/11/22 10:33:35;;;;;;;11.88;8.98;;;;;;;24.04;30.11;101032.63;1781006;79;27467;-66
2021/11/22 10:36:06;;;;;;;11.90;8.38;;;;;;;24.30;29.31;101031.28;1783658;79;25862;-67
2021/11/22 10:38:40;;;;;;;11.48;8.90;;;;;;;24.34;29.69;101029.80;1795172;79;25768;-66
2021/11/22 10:41:27;;;;;;;9.93;8.43;;;;;;;24.61;27.99;101016.67;1825083;78;25831;-66
2021/11/22 10:44:03;;;;;;;13.05;8.98;;;;;;;24.54;28.80;101018.12;1839571;78;25714;-65
2021/11/22 10:46:39;;;;;;;10.43;8.48;;;;;;;24.67;28.60;101020.44;1839550;77;27857;-65
2021/11/22 10:49:29;;;;;;;12.47;8.60;;;;;;;24.89;27.77;101019.55;1820918;78;25757;-66
2021/11/22 10:51:50;;;;;;;13.03;8.93;;;;;;;24.87;27.77;101013.45;1792211;79;25805;-66
2021/11/22 10:54:20;;;;;;;12.68;9.40;;;;;;;24.97;27.82;101010.16;1795234;78;25953;-66
2021/11/22 10:56:53;;;;;;;11.00;8.90;;;;;;;25.03;27.34;101009.80;1803101;78;25796;-65
2021/11/22 10:59:23;;;;;;;12.85;8.58;;;;;;;25.23;27.45;101002.70;1772146;79;27445;-66
2021/11/22 11:01:55;;;;;;;12.63;9.38;;;;;;;25.46;26.72;100996.55;1756793;80;25731;-66
2021/11/22 11:04:28;;;;;;;14.63;9.10;;;;;;;25.49;26.64;100995.23;1771447;79;25463;-65
2021/11/22 11:07:07;;;;;;;12.18;8.83;;;;;;;25.31;25.92;100992.24;1748959;82;25755;-65
2021/11/22 11:09:38;;;;;;;12.25;10.00;;;;;;;24.98;25.20;100992.05;1808482;79;25872;-66
2021/11/22 11:12:13;;;;;;;11.97;9.10;;;;;;;24.47;26.19;100995.34;1807812;79;27487;-66
2021/11/22 11:14:54;;;;;;;15.85;9.73;;;;;;;24.16;26.91;100994.83;1808467;77;25636;-65
2021/11/22 11:17:32;;;;;;;30.75;11.00;;;;;;;24.01;26.82;100999.25;1809454;79;25766;-66
2021/11/22 11:20:12;;;;;;;21.37;10.60;;;;;;;23.69;27.72;100993.66;1810944;77;26503;-66
2021/11/22 11:22:39;;;;;;;20.77;10.50;;;;;;;23.66;27.15;100994.94;1816161;77;25964;-66